createdAt,value
2019-05-20T00:00:24.905Z,11.45
2019-05-20T00:02:54.850Z,12.07
2019-05-20T00:05:24.501Z,11.55
2019-05-20T00:07:54.274Z,11.83
2019-05-20T00:10:23.722Z,12.15
2019-05-20T00:12:53.555Z,12.35
2019-05-20T00:15:23.036Z,12.05
2019-05-20T00:17:52.545Z,11.18
2019-05-20T00:20:22.479Z,12.25
2019-05-20T00:22:52.050Z,11.57
2019-05-20T00:25:21.620Z,11.65
2019-05-20T00:27:51.368Z,12.33
2019-05-20T00:30:21.482Z,11.95
2019-05-20T00:32:51.357Z,12.47
2019-05-20T00:35:21.379Z,12.23
2019-05-20T00:37:50.836Z,12.40
2019-05-20T00:40:20.412Z,12.73
2019-05-20T00:42:49.916Z,11.97
2019-05-20T00:45:19.500Z,12.95
2019-05-20T00:47:50.187Z,13.10
2019-05-20T00:50:19.701Z,12.05
2019-05-20T00:52:49.266Z,12.90
2019-05-20T00:55:24.648Z,12.90
2019-05-20T00:57:54.155Z,13.30
2019-05-20T01:00:24.258Z,13.03
2019-05-20T01:02:56.785Z,12.58
2019-05-20T01:05:26.068Z,13.28
2019-05-20T01:07:55.574Z,13.95
2019-05-20T01:10:25.099Z,13.25
2019-05-20T01:12:55.030Z,12.93
2019-05-20T01:15:24.622Z,13.78
2019-05-20T01:17:54.141Z,13.13
2019-05-20T01:20:23.607Z,13.72
2019-05-20T01:22:53.176Z,13.93
2019-05-20T01:25:22.651Z,14.75
2019-05-20T01:27:52.226Z,15.38
2019-05-20T01:30:22.117Z,16.57
2019-05-20T01:32:51.641Z,16.48
2019-05-20T01:35:21.152Z,14.83
2019-05-20T01:37:50.613Z,16.12
2019-05-20T01:40:20.626Z,14.95
2019-05-20T01:42:50.084Z,15.70
2019-05-20T01:45:19.682Z,14.78
2019-05-20T01:47:49.202Z,14.80
2019-05-20T01:50:18.789Z,13.62
2019-05-20T01:52:48.245Z,14.65
2019-05-20T01:55:17.856Z,14.63
2019-05-20T01:57:47.369Z,15.60
2019-05-20T02:00:17.221Z,15.38
2019-05-20T02:02:46.746Z,15.75
2019-05-20T02:05:16.313Z,15.50
2019-05-20T02:07:45.772Z,15.30
2019-05-20T02:10:15.678Z,16.30
2019-05-20T02:12:45.191Z,15.63
2019-05-20T02:15:28.986Z,15.30
2019-05-20T02:17:58.937Z,15.23
2019-05-20T02:20:28.404Z,14.55
2019-05-20T02:23:16.837Z,15.03
2019-05-20T02:25:48.700Z,15.05
2019-05-20T02:28:18.351Z,15.25
2019-05-20T02:30:47.832Z,16.42
2019-05-20T02:33:17.338Z,15.98
2019-05-20T02:35:46.793Z,16.42
2019-05-20T02:38:16.299Z,16.70
2019-05-20T02:40:45.823Z,17.10
2019-05-20T02:43:15.554Z,17.12
2019-05-20T02:45:45.080Z,17.80
2019-05-20T02:48:14.721Z,18.40
2019-05-20T02:50:44.494Z,18.55
2019-05-20T02:53:14.004Z,17.23
2019-05-20T02:55:43.957Z,19.50
2019-05-20T02:58:13.831Z,18.82
2019-05-20T03:00:43.420Z,19.65
2019-05-20T03:03:12.922Z,18.67
2019-05-20T03:05:42.806Z,18.87
2019-05-20T03:08:12.393Z,19.12
2019-05-20T03:10:42.584Z,18.85
2019-05-20T03:13:13.153Z,18.92
2019-05-20T03:15:42.678Z,19.90
2019-05-20T03:18:12.200Z,18.80
2019-05-20T03:20:41.724Z,20.37
2019-05-20T03:23:11.397Z,19.87
2019-05-20T03:25:41.044Z,19.57
2019-05-20T03:28:10.878Z,21.48
2019-05-20T03:30:40.805Z,20.40
2019-05-20T03:33:10.622Z,19.90
2019-05-20T03:35:40.162Z,20.55
2019-05-20T03:38:09.609Z,20.90
2019-05-20T03:40:39.171Z,20.62
2019-05-20T03:43:09.002Z,21.40
2019-05-20T03:45:38.611Z,22.07
2019-05-20T03:48:08.055Z,21.00
2019-05-20T03:50:37.563Z,21.93
2019-05-20T03:53:07.080Z,21.73
2019-05-20T03:55:36.622Z,22.25
2019-05-20T03:58:06.076Z,22.55
2019-05-20T04:00:48.414Z,22.30
2019-05-20T04:03:18.107Z,22.27
2019-05-20T04:05:47.630Z,22.62
2019-05-20T04:08:17.157Z,22.17
2019-05-20T04:10:46.751Z,23.42
2019-05-20T04:13:16.419Z,23.77
2019-05-20T04:15:45.890Z,22.87
2019-05-20T04:18:16.816Z,23.55
2019-05-20T04:20:46.329Z,23.27
2019-05-20T04:23:15.850Z,24.18
2019-05-20T04:25:45.385Z,24.75
2019-05-20T04:28:14.977Z,23.83
2019-05-20T04:30:44.560Z,22.30
2019-05-20T04:33:14.113Z,22.65
2019-05-20T04:35:43.574Z,24.10
2019-05-20T04:38:13.421Z,24.00
2019-05-20T04:40:43.253Z,23.45
2019-05-20T04:43:13.256Z,22.77
2019-05-20T04:45:43.052Z,23.07
2019-05-20T04:48:13.909Z,23.75
2019-05-20T04:50:43.671Z,22.10
2019-05-20T04:53:13.145Z,24.57
2019-05-20T04:55:42.980Z,25.12
2019-05-20T04:58:12.899Z,23.75
2019-05-20T05:00:56.517Z,24.02
2019-05-20T05:03:26.041Z,23.12
2019-05-20T05:05:55.992Z,23.60
2019-05-20T05:08:25.784Z,23.57
2019-05-20T05:10:55.496Z,22.30
2019-05-20T05:13:25.426Z,23.02
2019-05-20T05:15:55.103Z,23.50
2019-05-20T05:18:24.623Z,23.15
2019-05-20T05:20:54.204Z,23.47
2019-05-20T05:23:24.428Z,23.57
2019-05-20T05:25:54.105Z,23.65
2019-05-20T05:28:23.722Z,23.20
2019-05-20T05:30:53.552Z,22.75
2019-05-20T05:33:23.008Z,23.35
2019-05-20T05:35:53.756Z,24.72
2019-05-20T05:38:23.835Z,23.50
2019-05-20T05:40:53.353Z,24.52
2019-05-20T05:43:22.861Z,24.45
2019-05-20T05:45:52.428Z,24.57
2019-05-20T05:48:22.154Z,24.12
2019-05-20T05:50:51.975Z,23.87
2019-05-20T05:53:21.497Z,24.23
2019-05-20T05:55:50.959Z,24.63
2019-05-20T05:58:20.495Z,24.82
2019-05-20T06:00:49.940Z,24.37
2019-05-20T06:03:20.220Z,25.40
2019-05-20T06:05:49.661Z,24.35
2019-05-20T06:08:19.281Z,24.30
2019-05-20T06:10:48.845Z,24.05
2019-05-20T06:13:18.408Z,23.45
2019-05-20T06:15:48.265Z,23.27
2019-05-20T06:18:17.822Z,24.00
2019-05-20T06:20:47.343Z,23.38
2019-05-20T06:23:17.872Z,26.10
2019-05-20T06:25:47.423Z,23.10
2019-05-20T06:28:16.980Z,23.83
2019-05-20T06:30:48.196Z,24.72
2019-05-20T06:33:18.791Z,23.95
2019-05-20T06:35:48.392Z,23.42
2019-05-20T06:38:19.853Z,23.83
2019-05-20T06:40:50.339Z,23.90
2019-05-20T06:43:19.900Z,24.77
2019-05-20T06:45:49.373Z,24.15
2019-05-20T06:48:18.900Z,24.85
2019-05-20T06:50:48.329Z,23.15
2019-05-20T06:53:17.783Z,23.62
2019-05-20T06:55:47.291Z,24.80
2019-05-20T06:58:17.213Z,26.05
2019-05-20T07:00:46.772Z,41.30
2019-05-20T07:03:16.235Z,26.23
2019-05-20T07:05:45.888Z,25.40
2019-05-20T07:08:15.407Z,25.02
2019-05-20T07:10:45.382Z,26.70
2019-05-20T07:13:16.355Z,27.60
2019-05-20T07:15:46.149Z,26.27
2019-05-20T07:18:15.662Z,25.40
2019-05-20T07:20:45.472Z,26.23
2019-05-20T07:23:14.995Z,26.48
2019-05-20T07:25:44.615Z,25.65
2019-05-20T07:28:14.171Z,25.52
2019-05-20T07:30:43.655Z,23.90
2019-05-20T07:33:13.424Z,25.25
2019-05-20T07:35:43.007Z,24.80
2019-05-20T07:38:12.563Z,24.45
2019-05-20T07:40:42.122Z,25.17
2019-05-20T07:43:11.982Z,24.95
2019-05-20T07:45:42.743Z,24.52
2019-05-20T07:48:12.850Z,23.42
2019-05-20T07:50:43.752Z,21.75
2019-05-20T07:53:13.843Z,23.45
2019-05-20T07:56:00.276Z,22.48
2019-05-20T07:58:33.662Z,23.95
2019-05-20T08:01:04.146Z,23.05
2019-05-20T08:03:38.438Z,21.23
2019-05-20T08:06:05.912Z,20.62
2019-05-20T08:08:35.439Z,22.13
2019-05-20T08:11:05.323Z,23.38
2019-05-20T08:13:34.896Z,22.67
2019-05-20T08:16:04.499Z,23.52
2019-05-20T08:18:35.369Z,21.75
2019-05-20T08:21:05.369Z,22.45
2019-05-20T08:23:34.926Z,23.15
2019-05-20T08:26:04.519Z,21.20
2019-05-20T08:28:34.605Z,20.97
2019-05-20T08:31:04.148Z,21.42
2019-05-20T08:33:34.208Z,22.27
2019-05-20T08:36:03.901Z,21.05
2019-05-20T08:38:33.855Z,20.25
2019-05-20T08:41:03.310Z,21.40
2019-05-20T08:43:32.914Z,20.35
2019-05-20T08:46:02.379Z,20.35
2019-05-20T08:48:32.027Z,19.45
2019-05-20T08:51:01.882Z,20.88
2019-05-20T08:53:31.388Z,18.37
2019-05-20T08:56:00.935Z,19.35
2019-05-20T08:58:30.394Z,18.48
2019-05-20T09:00:59.886Z,19.48
2019-05-20T09:03:30.544Z,21.68
2019-05-20T09:06:01.646Z,20.57
2019-05-20T09:08:31.437Z,21.12
2019-05-20T09:11:01.016Z,19.23
2019-05-20T09:13:30.553Z,18.17
2019-05-20T09:16:00.464Z,20.50
2019-05-20T09:18:30.434Z,19.77
2019-05-20T09:21:00.049Z,19.70
2019-05-20T09:23:29.523Z,20.35
2019-05-20T09:25:59.650Z,20.60
2019-05-20T09:28:29.254Z,21.23
2019-05-20T09:30:58.753Z,19.42
2019-05-20T09:33:28.447Z,20.70
2019-05-20T09:35:58.240Z,20.02
2019-05-20T09:38:27.785Z,20.90
2019-05-20T09:40:57.726Z,19.05
2019-05-20T09:43:27.614Z,21.07
2019-05-20T09:46:07.679Z,19.37
2019-05-20T09:48:28.328Z,20.17
2019-05-20T09:50:57.874Z,18.62
2019-05-20T09:53:26.443Z,19.65
2019-05-20T09:55:55.827Z,18.02
2019-05-20T09:58:25.405Z,18.25
2019-05-20T10:00:54.890Z,18.12
2019-05-20T10:03:24.386Z,20.10
2019-05-20T10:05:53.867Z,18.27
2019-05-20T10:08:37.502Z,19.70
2019-05-20T10:10:59.412Z,20.17
2019-05-20T10:13:26.125Z,19.32
2019-05-20T10:15:55.589Z,21.40
2019-05-20T10:18:36.884Z,19.48
2019-05-20T10:20:56.292Z,18.02
2019-05-20T10:23:25.898Z,18.25
2019-05-20T10:25:55.364Z,19.42
2019-05-20T10:28:25.377Z,17.77
2019-05-20T10:30:54.915Z,17.98
2019-05-20T10:33:24.474Z,18.17
2019-05-20T10:35:53.955Z,19.73
2019-05-20T10:38:23.952Z,17.25
2019-05-20T10:40:54.306Z,20.02
2019-05-20T10:43:23.922Z,19.20
2019-05-20T10:45:53.752Z,14.83
2019-05-20T10:48:23.346Z,17.98
2019-05-20T10:50:52.863Z,17.07
2019-05-20T10:53:22.475Z,17.48
2019-05-20T10:55:52.411Z,17.12
2019-05-20T10:58:21.931Z,17.10
2019-05-20T11:01:02.336Z,17.60
2019-05-20T11:03:22.709Z,17.45
2019-05-20T11:05:52.233Z,18.82
2019-05-20T11:08:21.758Z,16.77
2019-05-20T11:10:51.378Z,15.48
2019-05-20T11:13:20.899Z,16.00
2019-05-20T11:15:50.394Z,13.18
2019-05-20T11:18:19.881Z,10.23
2019-05-20T11:20:49.385Z,10.65
2019-05-20T11:23:18.913Z,10.53
2019-05-20T11:25:48.426Z,14.87
2019-05-20T11:28:17.882Z,15.03
2019-05-20T11:30:47.400Z,11.20
2019-05-20T11:33:16.928Z,9.25
2019-05-20T11:35:46.745Z,9.05
2019-05-20T11:38:16.256Z,8.83
2019-05-20T11:40:46.835Z,8.50
2019-05-20T11:43:16.800Z,8.70
2019-05-20T11:45:46.322Z,8.78
2019-05-20T11:48:15.900Z,9.13
2019-05-20T11:50:45.337Z,8.60
2019-05-20T11:53:14.965Z,8.35
2019-05-20T11:55:45.425Z,8.25
2019-05-20T11:58:16.354Z,8.28
2019-05-20T12:00:46.321Z,8.18
2019-05-20T12:03:15.797Z,8.90
2019-05-20T12:05:45.408Z,8.78
2019-05-20T12:08:14.936Z,8.65
2019-05-20T12:10:44.974Z,8.18
2019-05-20T12:13:14.417Z,8.38
2019-05-20T12:15:44.120Z,7.55
2019-05-20T12:18:13.648Z,7.37
2019-05-20T12:20:43.209Z,7.40
2019-05-20T12:23:12.659Z,8.35
2019-05-20T12:25:42.201Z,11.73
2019-05-20T12:28:11.827Z,8.55
2019-05-20T12:30:41.732Z,8.48
2019-05-20T12:33:19.711Z,8.10
2019-05-20T12:35:42.361Z,8.53
2019-05-20T12:38:12.184Z,8.63
2019-05-20T12:40:41.974Z,8.95
2019-05-20T12:43:11.538Z,9.53
2019-05-20T12:45:41.191Z,8.65
2019-05-20T12:48:10.715Z,8.58
2019-05-20T12:50:40.163Z,9.18
2019-05-20T12:53:10.057Z,8.85
2019-05-20T12:55:39.575Z,8.30
2019-05-20T12:58:09.246Z,8.28
2019-05-20T13:00:39.094Z,7.97
2019-05-20T13:03:08.611Z,8.75
2019-05-20T13:05:39.129Z,10.13
2019-05-20T13:08:08.917Z,9.63
2019-05-20T13:10:38.386Z,9.95
2019-05-20T13:13:08.284Z,11.40
2019-05-20T13:15:37.733Z,13.35
2019-05-20T13:18:08.712Z,12.47
2019-05-20T13:20:38.316Z,12.75
2019-05-20T13:23:11.118Z,11.20
2019-05-20T13:25:40.191Z,11.38
2019-05-20T13:28:09.806Z,9.73
2019-05-20T13:30:39.363Z,9.63
2019-05-20T13:33:09.088Z,10.15
2019-05-20T13:35:39.600Z,11.57
2019-05-20T13:38:09.113Z,12.50
2019-05-20T13:40:46.223Z,11.05
2019-05-20T13:43:10.386Z,12.10
2019-05-20T13:45:41.026Z,12.00
2019-05-20T13:48:11.525Z,12.07
2019-05-20T13:50:40.999Z,11.80
2019-05-20T13:53:10.559Z,11.22
2019-05-20T13:55:40.058Z,11.68
2019-05-20T13:58:09.922Z,11.68
2019-05-20T14:00:39.392Z,11.83
2019-05-20T14:03:08.990Z,13.83
2019-05-20T14:05:38.504Z,11.75
2019-05-20T14:08:08.087Z,12.25
2019-05-20T14:10:38.073Z,12.65
2019-05-20T14:13:07.527Z,13.22
2019-05-20T14:15:37.211Z,13.53
2019-05-20T14:18:06.777Z,13.90
2019-05-20T14:20:36.381Z,14.25
2019-05-20T14:23:06.280Z,13.80
2019-05-20T14:25:35.759Z,12.13
2019-05-20T14:28:05.355Z,11.50
2019-05-20T14:30:35.933Z,11.18
2019-05-20T14:33:05.884Z,10.90
2019-05-20T14:35:35.696Z,10.58
2019-05-20T14:38:05.197Z,10.40
2019-05-20T14:40:34.819Z,11.15
2019-05-20T14:43:04.403Z,10.23
2019-05-20T14:45:33.884Z,9.83
2019-05-20T14:48:03.641Z,9.65
2019-05-20T14:50:33.213Z,10.28
2019-05-20T14:53:02.818Z,9.70
2019-05-20T14:55:41.867Z,8.95
2019-05-20T14:58:03.504Z,8.65
2019-05-20T15:00:33.968Z,8.83
2019-05-20T15:03:03.786Z,8.98
2019-05-20T15:05:33.408Z,9.40
2019-05-20T15:08:02.948Z,9.25
2019-05-20T15:10:32.719Z,8.80
2019-05-20T15:13:02.229Z,8.80
2019-05-20T15:15:33.354Z,8.58
2019-05-20T15:18:02.805Z,8.98
2019-05-20T15:20:32.380Z,8.78
2019-05-20T15:23:01.820Z,8.73
2019-05-20T15:25:32.628Z,8.83
2019-05-20T15:28:03.279Z,9.05
2019-05-20T15:30:32.803Z,8.70
2019-05-20T15:33:02.575Z,9.10
2019-05-20T15:35:32.468Z,8.73
2019-05-20T15:38:01.963Z,8.85
2019-05-20T15:40:31.419Z,8.30
2019-05-20T15:43:01.125Z,8.50
2019-05-20T15:45:30.610Z,9.08
2019-05-20T15:48:00.594Z,8.90
2019-05-20T15:50:30.399Z,9.45
2019-05-20T15:52:59.926Z,9.08
2019-05-20T15:55:29.409Z,8.60
2019-05-20T15:57:58.964Z,8.98
2019-05-20T16:00:28.534Z,9.10
2019-05-20T16:02:58.289Z,9.15
2019-05-20T16:05:27.865Z,9.13
2019-05-20T16:07:57.325Z,9.70
2019-05-20T16:10:26.812Z,9.30
2019-05-20T16:12:56.266Z,9.45
2019-05-20T16:15:25.945Z,11.20
2019-05-20T16:17:55.721Z,9.65
2019-05-20T16:20:25.313Z,7.90
2019-05-20T16:22:54.775Z,6.85
2019-05-20T16:25:24.554Z,7.47
2019-05-20T16:27:54.592Z,9.25
2019-05-20T16:30:25.893Z,9.60
2019-05-20T16:32:55.348Z,10.80
2019-05-20T16:35:24.851Z,11.73
2019-05-20T16:37:54.578Z,13.75
2019-05-20T16:40:24.643Z,12.85
2019-05-20T16:42:54.160Z,11.93
2019-05-20T16:45:24.269Z,13.30
2019-05-20T16:47:54.147Z,13.72
2019-05-20T16:50:24.056Z,15.43
2019-05-20T16:52:53.620Z,15.88
2019-05-20T16:55:23.157Z,15.25
2019-05-20T16:57:52.778Z,15.72
2019-05-20T17:00:31.391Z,15.72
2019-05-20T17:02:53.624Z,18.20
2019-05-20T17:05:23.611Z,19.10
2019-05-20T17:07:53.431Z,18.87
2019-05-20T17:10:23.003Z,19.57
2019-05-20T17:12:52.842Z,22.00
2019-05-20T17:15:22.445Z,20.95
2019-05-20T17:17:52.359Z,22.60
2019-05-20T17:20:22.066Z,22.10
2019-05-20T17:22:51.736Z,23.47
2019-05-20T17:25:21.478Z,23.10
2019-05-20T17:27:51.126Z,23.52
2019-05-20T17:30:20.678Z,22.85
2019-05-20T17:32:51.141Z,22.80
2019-05-20T17:35:21.337Z,22.15
2019-05-20T17:37:54.710Z,21.85
2019-05-20T17:40:29.692Z,20.75
2019-05-20T17:42:59.695Z,20.25
2019-05-20T17:45:29.651Z,21.68
2019-05-20T17:47:59.311Z,23.07
2019-05-20T17:50:29.263Z,20.60
2019-05-20T17:52:58.871Z,21.55
2019-05-20T17:55:29.577Z,21.00
2019-05-20T17:58:00.348Z,21.50
2019-05-20T18:00:29.910Z,20.80
2019-05-20T18:02:59.486Z,20.88
2019-05-20T18:05:28.958Z,21.52
2019-05-20T18:07:58.872Z,20.82
2019-05-20T18:10:28.408Z,24.45
2019-05-20T18:12:57.915Z,19.07
2019-05-20T18:15:27.571Z,10.65
2019-05-20T18:17:57.134Z,6.70
2019-05-20T18:20:26.675Z,6.42
2019-05-20T18:22:56.255Z,6.17
2019-05-20T18:25:25.710Z,7.87
2019-05-20T18:27:55.215Z,8.93
2019-05-20T18:30:26.089Z,9.65
2019-05-20T18:32:55.998Z,11.30
2019-05-20T18:35:25.517Z,11.08
2019-05-20T18:37:55.011Z,11.22
2019-05-20T18:40:24.543Z,11.12
2019-05-20T18:42:54.043Z,12.23
2019-05-20T18:45:23.934Z,13.35
2019-05-20T18:47:53.442Z,12.15
2019-05-20T18:50:22.999Z,13.72
2019-05-20T18:52:52.526Z,13.85
2019-05-20T18:55:22.028Z,22.45
2019-05-20T18:57:51.785Z,16.87
2019-05-20T19:00:22.424Z,17.17
2019-05-20T19:02:53.772Z,16.75
2019-05-20T19:05:23.889Z,17.70
2019-05-20T19:07:53.738Z,18.27
2019-05-20T19:10:24.470Z,19.67
2019-05-20T19:12:56.587Z,18.17
2019-05-20T19:15:26.643Z,18.67
2019-05-20T19:17:56.956Z,20.50
2019-05-20T19:20:27.680Z,22.60
2019-05-20T19:22:58.843Z,25.72
2019-05-20T19:25:37.338Z,27.62
2019-05-20T19:27:59.907Z,30.90
2019-05-20T19:30:29.475Z,33.23
2019-05-20T19:32:59.141Z,31.00
2019-05-20T19:35:28.720Z,32.25
2019-05-20T19:37:58.592Z,36.03
2019-05-20T19:40:28.273Z,35.52
2019-05-20T19:42:57.949Z,36.90
2019-05-20T19:45:27.570Z,33.95
2019-05-20T19:47:57.227Z,34.73
2019-05-20T19:50:27.139Z,33.85
2019-05-20T19:52:56.720Z,32.85
2019-05-20T19:55:26.239Z,33.08
2019-05-20T19:57:55.819Z,36.90
2019-05-20T20:00:25.547Z,35.80
2019-05-20T20:02:55.081Z,38.13
2019-05-20T20:05:27.505Z,38.78
2019-05-20T20:07:57.970Z,38.08
2019-05-20T20:10:28.347Z,38.65
2019-05-20T20:12:58.457Z,37.85
2019-05-20T20:15:28.662Z,38.78
2019-05-20T20:17:59.047Z,38.73
2019-05-20T20:20:28.814Z,35.23
2019-05-20T20:22:58.692Z,34.60
2019-05-20T20:25:28.991Z,35.05
2019-05-20T20:27:59.196Z,33.18
2019-05-20T20:30:28.787Z,33.25
2019-05-20T20:32:58.565Z,33.10
2019-05-20T20:35:37.568Z,34.95
2019-05-20T20:37:59.956Z,33.42
2019-05-20T20:40:30.388Z,32.33
2019-05-20T20:43:00.215Z,32.88
2019-05-20T20:45:30.597Z,32.42
2019-05-20T20:48:00.527Z,31.20
2019-05-20T20:50:31.126Z,31.25
2019-05-20T20:53:00.624Z,33.35
2019-05-20T20:55:30.092Z,33.30
2019-05-20T20:57:59.716Z,33.78
2019-05-20T21:00:30.564Z,32.45
2019-05-20T21:03:00.357Z,31.27
2019-05-20T21:05:30.334Z,32.13
2019-05-20T21:07:59.821Z,31.42
2019-05-20T21:10:29.289Z,32.98
2019-05-20T21:12:59.153Z,33.15
2019-05-20T21:15:28.601Z,30.75
2019-05-20T21:17:58.096Z,31.70
2019-05-20T21:20:27.553Z,30.80
2019-05-20T21:22:57.083Z,31.85
2019-05-20T21:25:26.619Z,30.55
2019-05-20T21:27:56.261Z,32.70
2019-05-20T21:30:26.078Z,32.70
2019-05-20T21:33:08.152Z,32.20
2019-05-20T21:35:26.744Z,33.63
2019-05-20T21:37:56.191Z,33.83
2019-05-20T21:40:26.046Z,33.13
2019-05-20T21:42:55.508Z,33.65
2019-05-20T21:45:25.086Z,34.38
2019-05-20T21:47:54.533Z,33.73
2019-05-20T21:50:24.322Z,33.30
2019-05-20T21:52:53.820Z,31.25
2019-05-20T21:55:23.335Z,32.63
2019-05-20T21:57:52.874Z,28.85
2019-05-20T22:00:24.202Z,28.57
2019-05-20T22:02:55.277Z,28.47
2019-05-20T22:05:24.787Z,26.90
2019-05-20T22:07:54.278Z,26.27
2019-05-20T22:10:23.850Z,25.02
2019-05-20T22:12:53.722Z,24.90
2019-05-20T22:15:23.179Z,23.98
2019-05-20T22:17:52.684Z,23.90
2019-05-20T22:20:22.150Z,23.38
2019-05-20T22:22:55.974Z,24.80
2019-05-20T22:25:25.444Z,23.55
2019-05-20T22:27:54.944Z,23.62
2019-05-20T22:30:24.489Z,24.20
2019-05-20T22:32:53.984Z,24.85
2019-05-20T22:35:23.436Z,24.07
2019-05-20T22:37:53.011Z,25.68
2019-05-20T22:40:22.631Z,27.35
2019-05-20T22:42:52.127Z,26.68
2019-05-20T22:45:21.660Z,25.95
2019-05-20T22:47:51.444Z,25.68
2019-05-20T22:50:20.910Z,27.22
2019-05-20T22:52:51.998Z,28.30
2019-05-20T22:55:21.636Z,27.52
2019-05-20T22:57:51.089Z,27.15
2019-05-20T23:00:20.743Z,28.15
2019-05-20T23:02:50.618Z,27.93
2019-05-20T23:05:20.126Z,27.00
2019-05-20T23:07:49.593Z,28.10
2019-05-20T23:10:19.368Z,27.37
2019-05-20T23:12:48.823Z,26.77
2019-05-20T23:15:18.316Z,28.80
2019-05-20T23:17:47.855Z,27.50
2019-05-20T23:20:17.781Z,27.32
2019-05-20T23:22:47.291Z,28.30
2019-05-20T23:25:16.816Z,28.32
2019-05-20T23:27:46.322Z,28.15
2019-05-20T23:30:16.472Z,27.55
2019-05-20T23:32:46.028Z,28.05
2019-05-20T23:35:15.598Z,29.00
2019-05-20T23:37:45.166Z,28.15
2019-05-20T23:40:14.625Z,28.95
2019-05-20T23:42:44.276Z,28.67
2019-05-20T23:45:14.233Z,29.35
2019-05-20T23:47:43.794Z,28.98
2019-05-20T23:50:13.482Z,31.33
2019-05-20T23:52:43.111Z,31.90
2019-05-20T23:55:12.743Z,30.77
2019-05-20T23:57:42.260Z,31.45
